sensor_id;sensor_type;location;lat;lon;timestamp;temperature;humidity
21918;DHT22;11123;49.882;8.662;2022-12-18T00:01:43;-8.90;99.90
21918;DHT22;11123;49.882;8.662;2022-12-18T00:04:19;-8.90;99.90
21918;DHT22;11123;49.882;8.662;2022-12-18T00:06:49;-8.90;99.90
21918;DHT22;11123;49.882;8.662;2022-12-18T00:09:20;-9.00;99.90
21918;DHT22;11123;49.882;8.662;2022-12-18T00:11:52;-9.00;99.90
21918;DHT22;11123;49.882;8.662;2022-12-18T00:14:22;-9.00;99.90
21918;DHT22;11123;49.882;8.662;2022-12-18T00:16:51;-9.00;99.90
21918;DHT22;11123;49.882;8.662;2022-12-18T00:19:20;-8.90;99.90
21918;DHT22;11123;49.882;8.662;2022-12-18T00:21:49;-8.90;99.90
21918;DHT22;11123;49.882;8.662;2022-12-18T00:24:18;-8.80;99.90
21918;DHT22;11123;49.882;8.662;2022-12-18T00:26:47;-8.80;99.90
21918;DHT22;11123;49.882;8.662;2022-12-18T00:29:18;-8.80;99.90
21918;DHT22;11123;49.882;8.662;2022-12-18T00:31:49;-8.80;99.90
21918;DHT22;11123;49.882;8.662;2022-12-18T00:34:18;-8.80;99.90
21918;DHT22;11123;49.882;8.662;2022-12-18T00:36:48;-8.80;99.90
21918;DHT22;11123;49.882;8.662;2022-12-18T00:39:17;-8.80;99.90
21918;DHT22;11123;49.882;8.662;2022-12-18T00:41:46;-8.80;99.90
21918;DHT22;11123;49.882;8.662;2022-12-18T00:44:33;-8.80;99.90
21918;DHT22;11123;49.882;8.662;2022-12-18T00:47:08;-8.80;99.90
21918;DHT22;11123;49.882;8.662;2022-12-18T00:49:36;-8.80;99.90
21918;DHT22;11123;49.882;8.662;2022-12-18T00:52:09;-8.80;99.90
21918;DHT22;11123;49.882;8.662;2022-12-18T00:54:37;-8.80;99.90
21918;DHT22;11123;49.882;8.662;2022-12-18T00:57:17;-8.80;99.90
21918;DHT22;11123;49.882;8.662;2022-12-18T00:59:46;-8.70;99.90
21918;DHT22;11123;49.882;8.662;2022-12-18T01:02:19;-8.70;99.90
21918;DHT22;11123;49.882;8.662;2022-12-18T01:04:49;-8.70;99.90
21918;DHT22;11123;49.882;8.662;2022-12-18T01:07:20;-8.70;99.90
21918;DHT22;11123;49.882;8.662;2022-12-18T01:09:49;-8.70;99.90
21918;DHT22;11123;49.882;8.662;2022-12-18T01:12:19;-8.70;99.90
21918;DHT22;11123;49.882;8.662;2022-12-18T01:14:50;-8.60;99.90
21918;DHT22;11123;49.882;8.662;2022-12-18T01:17:22;-8.60;99.90
21918;DHT22;11123;49.882;8.662;2022-12-18T01:19:51;-8.60;99.90
21918;DHT22;11123;49.882;8.662;2022-12-18T01:22:38;-8.60;99.90
21918;DHT22;11123;49.882;8.662;2022-12-18T01:25:08;-8.60;99.90
21918;DHT22;11123;49.882;8.662;2022-12-18T01:27:37;-8.50;99.90
21918;DHT22;11123;49.882;8.662;2022-12-18T01:30:06;-8.50;99.90
21918;DHT22;11123;49.882;8.662;2022-12-18T01:32:39;-8.50;99.90
21918;DHT22;11123;49.882;8.662;2022-12-18T01:35:09;-8.50;99.90
21918;DHT22;11123;49.882;8.662;2022-12-18T01:37:37;-8.50;99.90
21918;DHT22;11123;49.882;8.662;2022-12-18T01:40:08;-8.50;99.90
21918;DHT22;11123;49.882;8.662;2022-12-18T01:42:37;-8.50;99.90
21918;DHT22;11123;49.882;8.662;2022-12-18T01:45:22;-8.50;99.90
21918;DHT22;11123;49.882;8.662;2022-12-18T01:47:55;-8.50;99.90
21918;DHT22;11123;49.882;8.662;2022-12-18T01:50:30;-8.50;99.90
21918;DHT22;11123;49.882;8.662;2022-12-18T01:53:03;-8.50;99.90
21918;DHT22;11123;49.882;8.662;2022-12-18T01:55:38;-8.60;99.90
21918;DHT22;11123;49.882;8.662;2022-12-18T01:58:09;-8.60;99.90
21918;DHT22;11123;49.882;8.662;2022-12-18T02:00:38;-8.60;99.90
21918;DHT22;11123;49.882;8.662;2022-12-18T02:03:08;-8.60;99.90
21918;DHT22;11123;49.882;8.662;2022-12-18T02:05:44;-8.50;99.90
21918;DHT22;11123;49.882;8.662;2022-12-18T02:08:20;-8.60;99.90
21918;DHT22;11123;49.882;8.662;2022-12-18T02:10:59;-8.60;99.90
21918;DHT22;11123;49.882;8.662;2022-12-18T02:13:37;-8.60;99.90
21918;DHT22;11123;49.882;8.662;2022-12-18T02:16:13;-8.70;99.90
21918;DHT22;11123;49.882;8.662;2022-12-18T02:18:50;-8.70;99.90
21918;DHT22;11123;49.882;8.662;2022-12-18T02:21:27;-8.70;99.90
21918;DHT22;11123;49.882;8.662;2022-12-18T02:24:07;-8.70;99.90
21918;DHT22;11123;49.882;8.662;2022-12-18T02:26:43;-8.80;99.90
21918;DHT22;11123;49.882;8.662;2022-12-18T02:29:18;-8.80;99.90
21918;DHT22;11123;49.882;8.662;2022-12-18T02:31:54;-8.90;99.90
21918;DHT22;11123;49.882;8.662;2022-12-18T02:34:29;-9.00;99.90
21918;DHT22;11123;49.882;8.662;2022-12-18T02:37:02;-9.10;99.90
21918;DHT22;11123;49.882;8.662;2022-12-18T02:39:38;-9.10;99.90
21918;DHT22;11123;49.882;8.662;2022-12-18T02:42:10;-9.20;99.90
21918;DHT22;11123;49.882;8.662;2022-12-18T02:44:45;-9.30;99.90
21918;DHT22;11123;49.882;8.662;2022-12-18T02:47:20;-9.40;99.90
21918;DHT22;11123;49.882;8.662;2022-12-18T02:49:55;-9.50;99.90
21918;DHT22;11123;49.882;8.662;2022-12-18T02:52:35;-9.50;99.90
21918;DHT22;11123;49.882;8.662;2022-12-18T02:55:22;-9.70;99.90
21918;DHT22;11123;49.882;8.662;2022-12-18T02:58:05;-9.80;99.90
21918;DHT22;11123;49.882;8.662;2022-12-18T03:00:44;-9.90;99.90
21918;DHT22;11123;49.882;8.662;2022-12-18T03:03:22;-10.00;99.90
21918;DHT22;11123;49.882;8.662;2022-12-18T03:05:57;-10.10;99.90
21918;DHT22;11123;49.882;8.662;2022-12-18T03:08:30;-10.20;99.90
21918;DHT22;11123;49.882;8.662;2022-12-18T03:11:03;-10.30;99.90
21918;DHT22;11123;49.882;8.662;2022-12-18T03:13:37;-10.40;99.90
21918;DHT22;11123;49.882;8.662;2022-12-18T03:16:12;-10.40;99.90
21918;DHT22;11123;49.882;8.662;2022-12-18T03:18:48;-10.40;99.90
21918;DHT22;11123;49.882;8.662;2022-12-18T03:21:39;-10.40;99.90
21918;DHT22;11123;49.882;8.662;2022-12-18T03:24:46;-10.40;99.90
21918;DHT22;11123;49.882;8.662;2022-12-18T03:27:25;-10.40;99.90
21918;DHT22;11123;49.882;8.662;2022-12-18T03:30:03;-10.50;99.90
21918;DHT22;11123;49.882;8.662;2022-12-18T03:32:41;-10.50;99.90
21918;DHT22;11123;49.882;8.662;2022-12-18T03:35:15;-10.50;99.90
21918;DHT22;11123;49.882;8.662;2022-12-18T03:37:45;-10.60;99.90
21918;DHT22;11123;49.882;8.662;2022-12-18T03:40:14;-10.60;99.90
21918;DHT22;11123;49.882;8.662;2022-12-18T03:42:47;-10.60;99.90
21918;DHT22;11123;49.882;8.662;2022-12-18T03:45:24;-10.60;99.90
21918;DHT22;11123;49.882;8.662;2022-12-18T03:47:59;-10.70;99.90
21918;DHT22;11123;49.882;8.662;2022-12-18T03:50:43;-10.70;99.90
21918;DHT22;11123;49.882;8.662;2022-12-18T03:53:22;-10.70;99.90
21918;DHT22;11123;49.882;8.662;2022-12-18T03:55:55;-10.70;99.90
21918;DHT22;11123;49.882;8.662;2022-12-18T03:58:33;-10.70;99.90
21918;DHT22;11123;49.882;8.662;2022-12-18T04:01:17;-10.80;99.90
21918;DHT22;11123;49.882;8.662;2022-12-18T04:03:49;-10.80;99.90
21918;DHT22;11123;49.882;8.662;2022-12-18T04:06:22;-10.80;99.90
21918;DHT22;11123;49.882;8.662;2022-12-18T04:08:52;-10.80;99.90
21918;DHT22;11123;49.882;8.662;2022-12-18T04:11:37;-10.90;99.90
21918;DHT22;11123;49.882;8.662;2022-12-18T04:14:46;-10.90;99.90
21918;DHT22;11123;49.882;8.662;2022-12-18T04:17:22;-10.90;99.90
21918;DHT22;11123;49.882;8.662;2022-12-18T04:19:53;-10.90;99.90
21918;DHT22;11123;49.882;8.662;2022-12-18T04:22:30;-10.90;99.90
21918;DHT22;11123;49.882;8.662;2022-12-18T04:25:00;-10.90;99.90
21918;DHT22;11123;49.882;8.662;2022-12-18T04:27:49;-10.90;99.90
21918;DHT22;11123;49.882;8.662;2022-12-18T04:30:18;-10.90;99.90
21918;DHT22;11123;49.882;8.662;2022-12-18T04:32:49;-10.90;99.90
21918;DHT22;11123;49.882;8.662;2022-12-18T04:35:23;-10.90;99.90
21918;DHT22;11123;49.882;8.662;2022-12-18T04:37:52;-11.00;99.90
21918;DHT22;11123;49.882;8.662;2022-12-18T04:40:21;-11.00;99.90
21918;DHT22;11123;49.882;8.662;2022-12-18T04:42:53;-11.00;99.90
21918;DHT22;11123;49.882;8.662;2022-12-18T04:45:22;-11.10;99.90
21918;DHT22;11123;49.882;8.662;2022-12-18T04:47:52;-11.10;99.90
21918;DHT22;11123;49.882;8.662;2022-12-18T04:50:21;-11.10;99.90
21918;DHT22;11123;49.882;8.662;2022-12-18T04:52:50;-11.10;99.90
21918;DHT22;11123;49.882;8.662;2022-12-18T04:55:22;-11.10;99.90
21918;DHT22;11123;49.882;8.662;2022-12-18T04:58:09;-11.10;99.90
21918;DHT22;11123;49.882;8.662;2022-12-18T05:00:38;-11.20;99.90
21918;DHT22;11123;49.882;8.662;2022-12-18T05:03:09;-11.20;99.90
21918;DHT22;11123;49.882;8.662;2022-12-18T05:05:40;-11.20;99.90
21918;DHT22;11123;49.882;8.662;2022-12-18T05:08:15;-11.20;99.90
21918;DHT22;11123;49.882;8.662;2022-12-18T05:11:36;-11.20;99.90
21918;DHT22;11123;49.882;8.662;2022-12-18T05:14:30;-11.30;99.90
21918;DHT22;11123;49.882;8.662;2022-12-18T05:17:24;-11.20;99.90
21918;DHT22;11123;49.882;8.662;2022-12-18T05:20:53;-11.30;99.90
21918;DHT22;11123;49.882;8.662;2022-12-18T05:23:24;-11.20;99.90
21918;DHT22;11123;49.882;8.662;2022-12-18T05:26:23;-11.20;99.90
21918;DHT22;11123;49.882;8.662;2022-12-18T05:28:53;-11.20;99.90
21918;DHT22;11123;49.882;8.662;2022-12-18T05:31:27;-11.20;99.90
21918;DHT22;11123;49.882;8.662;2022-12-18T05:34:30;-11.20;99.90
21918;DHT22;11123;49.882;8.662;2022-12-18T05:37:03;-11.20;99.90
21918;DHT22;11123;49.882;8.662;2022-12-18T05:39:38;-11.20;99.90
21918;DHT22;11123;49.882;8.662;2022-12-18T05:42:10;-11.20;99.90
21918;DHT22;11123;49.882;8.662;2022-12-18T05:44:46;-11.20;99.90
21918;DHT22;11123;49.882;8.662;2022-12-18T05:47:15;-11.20;99.90
21918;DHT22;11123;49.882;8.662;2022-12-18T05:49:48;-11.20;99.90
21918;DHT22;11123;49.882;8.662;2022-12-18T05:52:25;-11.30;99.90
21918;DHT22;11123;49.882;8.662;2022-12-18T05:55:06;-11.30;99.90
21918;DHT22;11123;49.882;8.662;2022-12-18T05:57:39;-11.30;99.90
21918;DHT22;11123;49.882;8.662;2022-12-18T06:00:09;-11.30;99.90
21918;DHT22;11123;49.882;8.662;2022-12-18T06:02:49;-11.40;99.90
21918;DHT22;11123;49.882;8.662;2022-12-18T06:05:37;-11.40;99.90
21918;DHT22;11123;49.882;8.662;2022-12-18T06:08:14;-11.40;99.90
21918;DHT22;11123;49.882;8.662;2022-12-18T06:10:50;-11.40;99.90
21918;DHT22;11123;49.882;8.662;2022-12-18T06:13:31;-11.40;99.90
21918;DHT22;11123;49.882;8.662;2022-12-18T06:16:04;-11.40;99.90
21918;DHT22;11123;49.882;8.662;2022-12-18T06:18:41;-11.40;99.90
21918;DHT22;11123;49.882;8.662;2022-12-18T06:21:57;-11.40;99.90
21918;DHT22;11123;49.882;8.662;2022-12-18T06:25:03;-11.50;99.90
21918;DHT22;11123;49.882;8.662;2022-12-18T06:27:49;-11.50;99.90
21918;DHT22;11123;49.882;8.662;2022-12-18T06:30:35;-11.50;99.90
21918;DHT22;11123;49.882;8.662;2022-12-18T06:33:04;-11.40;99.90
21918;DHT22;11123;49.882;8.662;2022-12-18T06:35:38;-11.40;99.90
21918;DHT22;11123;49.882;8.662;2022-12-18T06:38:10;-11.40;99.90
21918;DHT22;11123;49.882;8.662;2022-12-18T06:41:06;-11.40;99.90
21918;DHT22;11123;49.882;8.662;2022-12-18T06:43:39;-11.40;99.90
21918;DHT22;11123;49.882;8.662;2022-12-18T06:46:10;-11.40;99.90
21918;DHT22;11123;49.882;8.662;2022-12-18T06:48:41;-11.40;99.90
21918;DHT22;11123;49.882;8.662;2022-12-18T06:51:20;-11.40;99.90
21918;DHT22;11123;49.882;8.662;2022-12-18T06:53:58;-11.40;99.90
21918;DHT22;11123;49.882;8.662;2022-12-18T06:56:31;-11.50;99.90
21918;DHT22;11123;49.882;8.662;2022-12-18T06:59:25;-11.50;99.90
21918;DHT22;11123;49.882;8.662;2022-12-18T07:01:54;-11.50;99.90
21918;DHT22;11123;49.882;8.662;2022-12-18T07:04:28;-11.50;99.90
21918;DHT22;11123;49.882;8.662;2022-12-18T07:06:57;-11.50;99.90
21918;DHT22;11123;49.882;8.662;2022-12-18T07:09:29;-11.50;99.90
21918;DHT22;11123;49.882;8.662;2022-12-18T07:12:12;-11.50;99.90
21918;DHT22;11123;49.882;8.662;2022-12-18T07:14:43;-11.50;99.90
21918;DHT22;11123;49.882;8.662;2022-12-18T07:17:17;-11.50;99.90
21918;DHT22;11123;49.882;8.662;2022-12-18T07:20:00;-11.40;99.90
21918;DHT22;11123;49.882;8.662;2022-12-18T07:22:37;-11.40;99.90
21918;DHT22;11123;49.882;8.662;2022-12-18T07:29:16;-11.40;99.90
21918;DHT22;11123;49.882;8.662;2022-12-18T07:32:00;-11.50;99.90
21918;DHT22;11123;49.882;8.662;2022-12-18T07:38:43;-11.30;99.90
21918;DHT22;11123;49.882;8.662;2022-12-18T07:41:54;-11.30;99.90
21918;DHT22;11123;49.882;8.662;2022-12-18T07:44:51;-11.30;99.90
21918;DHT22;11123;49.882;8.662;2022-12-18T07:47:22;-11.30;99.90
21918;DHT22;11123;49.882;8.662;2022-12-18T07:50:09;-11.20;99.90
21918;DHT22;11123;49.882;8.662;2022-12-18T07:53:00;-11.20;99.90
21918;DHT22;11123;49.882;8.662;2022-12-18T07:56:54;-11.20;99.90
21918;DHT22;11123;49.882;8.662;2022-12-18T07:59:52;-11.20;99.90
21918;DHT22;11123;49.882;8.662;2022-12-18T08:02:40;-11.20;99.90
21918;DHT22;11123;49.882;8.662;2022-12-18T08:06:00;-11.10;99.90
21918;DHT22;11123;49.882;8.662;2022-12-18T08:09:18;-11.00;99.90
21918;DHT22;11123;49.882;8.662;2022-12-18T08:11:50;-10.90;99.90
21918;DHT22;11123;49.882;8.662;2022-12-18T08:20:11;-10.90;99.90
21918;DHT22;11123;49.882;8.662;2022-12-18T08:25:58;-10.60;99.90
21918;DHT22;11123;49.882;8.662;2022-12-18T08:29:30;-10.60;99.90
21918;DHT22;11123;49.882;8.662;2022-12-18T08:32:22;-10.50;99.90
21918;DHT22;11123;49.882;8.662;2022-12-18T08:34:59;-10.40;99.90
21918;DHT22;11123;49.882;8.662;2022-12-18T08:37:36;-10.30;99.90
21918;DHT22;11123;49.882;8.662;2022-12-18T08:40:12;-10.20;99.90
21918;DHT22;11123;49.882;8.662;2022-12-18T08:42:48;-10.10;99.90
21918;DHT22;11123;49.882;8.662;2022-12-18T08:50:05;-10.10;99.90
21918;DHT22;11123;49.882;8.662;2022-12-18T08:52:36;-10.10;99.90
21918;DHT22;11123;49.882;8.662;2022-12-18T08:55:13;-10.00;99.90
21918;DHT22;11123;49.882;8.662;2022-12-18T09:01:42;-9.90;99.90
21918;DHT22;11123;49.882;8.662;2022-12-18T09:04:36;-9.70;99.90
21918;DHT22;11123;49.882;8.662;2022-12-18T09:07:09;-9.60;99.90
21918;DHT22;11123;49.882;8.662;2022-12-18T09:09:59;-9.50;99.90
21918;DHT22;11123;49.882;8.662;2022-12-18T09:13:04;-9.30;99.90
21918;DHT22;11123;49.882;8.662;2022-12-18T10:02:45;-5.10;99.90
21918;DHT22;11123;49.882;8.662;2022-12-18T10:06:01;-4.80;99.90
21918;DHT22;11123;49.882;8.662;2022-12-18T10:09:51;-4.70;99.90
21918;DHT22;11123;49.882;8.662;2022-12-18T10:13:56;-4.40;99.90
21918;DHT22;11123;49.882;8.662;2022-12-18T10:16:40;-4.20;99.90
21918;DHT22;11123;49.882;8.662;2022-12-18T10:19:49;-4.00;99.90
21918;DHT22;11123;49.882;8.662;2022-12-18T10:23:37;-3.70;99.90
21918;DHT22;11123;49.882;8.662;2022-12-18T10:27:11;-3.40;99.90
21918;DHT22;11123;49.882;8.662;2022-12-18T10:30:15;-3.20;99.90
21918;DHT22;11123;49.882;8.662;2022-12-18T10:33:30;-3.10;99.90
21918;DHT22;11123;49.882;8.662;2022-12-18T10:37:18;-3.10;99.90
21918;DHT22;11123;49.882;8.662;2022-12-18T10:40:15;-3.00;99.90
21918;DHT22;11123;49.882;8.662;2022-12-18T10:47:24;-3.10;99.90
21918;DHT22;11123;49.882;8.662;2022-12-18T10:50:50;-3.20;99.90
21918;DHT22;11123;49.882;8.662;2022-12-18T10:54:48;-3.30;99.90
21918;DHT22;11123;49.882;8.662;2022-12-18T10:58:39;-3.40;99.90
21918;DHT22;11123;49.882;8.662;2022-12-18T11:02:07;-3.30;99.90
21918;DHT22;11123;49.882;8.662;2022-12-18T11:08:34;-3.20;99.90
21918;DHT22;11123;49.882;8.662;2022-12-18T11:11:20;-3.10;99.90
21918;DHT22;11123;49.882;8.662;2022-12-18T11:18:27;-3.10;99.90
21918;DHT22;11123;49.882;8.662;2022-12-18T11:21:16;-3.00;99.90
21918;DHT22;11123;49.882;8.662;2022-12-18T11:24:01;-2.90;99.90
21918;DHT22;11123;49.882;8.662;2022-12-18T11:26:35;-2.90;99.90
21918;DHT22;11123;49.882;8.662;2022-12-18T11:29:40;-2.90;99.90
21918;DHT22;11123;49.882;8.662;2022-12-18T11:33:00;-2.80;99.90
21918;DHT22;11123;49.882;8.662;2022-12-18T11:40:01;-2.70;99.90
21918;DHT22;11123;49.882;8.662;2022-12-18T11:42:39;-2.70;99.90
21918;DHT22;11123;49.882;8.662;2022-12-18T11:48:52;-2.70;99.90
21918;DHT22;11123;49.882;8.662;2022-12-18T11:54:58;-2.60;97.70
21918;DHT22;11123;49.882;8.662;2022-12-18T11:58:07;-2.60;99.60
21918;DHT22;11123;49.882;8.662;2022-12-18T12:00:56;-2.60;99.90
21918;DHT22;11123;49.882;8.662;2022-12-18T12:04:28;-2.70;99.90
21918;DHT22;11123;49.882;8.662;2022-12-18T12:07:31;-2.90;99.90
21918;DHT22;11123;49.882;8.662;2022-12-18T12:11:41;-3.00;99.90
21918;DHT22;11123;49.882;8.662;2022-12-18T12:14:36;-3.10;99.90
21918;DHT22;11123;49.882;8.662;2022-12-18T12:17:17;-3.30;99.90
21918;DHT22;11123;49.882;8.662;2022-12-18T12:20:52;-3.40;99.90
21918;DHT22;11123;49.882;8.662;2022-12-18T12:25:21;-3.40;99.90
21918;DHT22;11123;49.882;8.662;2022-12-18T12:33:33;-3.60;99.90
21918;DHT22;11123;49.882;8.662;2022-12-18T12:40:27;-3.80;99.90
21918;DHT22;11123;49.882;8.662;2022-12-18T12:44:22;-3.80;99.90
21918;DHT22;11123;49.882;8.662;2022-12-18T12:47:12;-3.90;99.90
21918;DHT22;11123;49.882;8.662;2022-12-18T12:54:37;-3.90;99.90
21918;DHT22;11123;49.882;8.662;2022-12-18T12:57:26;-4.00;99.90
21918;DHT22;11123;49.882;8.662;2022-12-18T13:01:28;-4.00;99.90
21918;DHT22;11123;49.882;8.662;2022-12-18T13:04:23;-4.10;99.90
21918;DHT22;11123;49.882;8.662;2022-12-18T13:07:51;-4.10;99.90
21918;DHT22;11123;49.882;8.662;2022-12-18T13:14:44;-4.00;99.90
21918;DHT22;11123;49.882;8.662;2022-12-18T13:17:37;-3.90;99.90
21918;DHT22;11123;49.882;8.662;2022-12-18T13:20:33;-4.00;99.90
21918;DHT22;11123;49.882;8.662;2022-12-18T13:23:44;-4.00;99.90
21918;DHT22;11123;49.882;8.662;2022-12-18T13:26:57;-4.00;99.90
21918;DHT22;11123;49.882;8.662;2022-12-18T13:31:07;-4.00;99.90
21918;DHT22;11123;49.882;8.662;2022-12-18T13:33:52;-4.00;99.90
21918;DHT22;11123;49.882;8.662;2022-12-18T13:43:46;-3.90;99.90
21918;DHT22;11123;49.882;8.662;2022-12-18T13:46:23;-3.90;99.90
21918;DHT22;11123;49.882;8.662;2022-12-18T13:49:03;-3.90;99.90
21918;DHT22;11123;49.882;8.662;2022-12-18T13:52:24;-3.80;99.90
21918;DHT22;11123;49.882;8.662;2022-12-18T13:55:14;-3.90;99.90
21918;DHT22;11123;49.882;8.662;2022-12-18T13:57:48;-3.90;99.90
21918;DHT22;11123;49.882;8.662;2022-12-18T14:01:57;-3.90;99.90
21918;DHT22;11123;49.882;8.662;2022-12-18T14:04:27;-3.90;99.90
21918;DHT22;11123;49.882;8.662;2022-12-18T14:08:01;-3.90;99.90
21918;DHT22;11123;49.882;8.662;2022-12-18T14:10:32;-4.00;99.90
21918;DHT22;11123;49.882;8.662;2022-12-18T14:13:53;-3.90;99.90
21918;DHT22;11123;49.882;8.662;2022-12-18T14:16:46;-3.90;99.90
21918;DHT22;11123;49.882;8.662;2022-12-18T14:19:18;-3.90;99.90
21918;DHT22;11123;49.882;8.662;2022-12-18T14:21:57;-3.90;99.90
21918;DHT22;11123;49.882;8.662;2022-12-18T14:24:28;-3.90;99.90
21918;DHT22;11123;49.882;8.662;2022-12-18T14:27:23;-3.90;99.90
21918;DHT22;11123;49.882;8.662;2022-12-18T14:29:55;-3.90;99.90
21918;DHT22;11123;49.882;8.662;2022-12-18T14:32:28;-3.90;99.90
21918;DHT22;11123;49.882;8.662;2022-12-18T14:35:13;-3.90;99.90
21918;DHT22;11123;49.882;8.662;2022-12-18T14:37:46;-3.90;99.90
21918;DHT22;11123;49.882;8.662;2022-12-18T14:40:20;-4.00;99.90
21918;DHT22;11123;49.882;8.662;2022-12-18T14:42:53;-3.90;99.90
21918;DHT22;11123;49.882;8.662;2022-12-18T14:45:36;-4.00;99.90
21918;DHT22;11123;49.882;8.662;2022-12-18T14:48:16;-4.00;99.90
21918;DHT22;11123;49.882;8.662;2022-12-18T14:50:59;-4.00;99.90
21918;DHT22;11123;49.882;8.662;2022-12-18T14:53:38;-4.00;99.90
21918;DHT22;11123;49.882;8.662;2022-12-18T14:56:17;-4.00;99.90
21918;DHT22;11123;49.882;8.662;2022-12-18T14:58:51;-4.00;99.90
21918;DHT22;11123;49.882;8.662;2022-12-18T15:01:57;-4.00;99.90
21918;DHT22;11123;49.882;8.662;2022-12-18T15:04:34;-4.00;99.90
21918;DHT22;11123;49.882;8.662;2022-12-18T15:07:09;-4.10;99.90
21918;DHT22;11123;49.882;8.662;2022-12-18T15:09:43;-4.10;99.90
21918;DHT22;11123;49.882;8.662;2022-12-18T15:12:32;-4.10;99.90
21918;DHT22;11123;49.882;8.662;2022-12-18T15:15:01;-4.10;99.90
21918;DHT22;11123;49.882;8.662;2022-12-18T15:17:31;-4.20;99.90
21918;DHT22;11123;49.882;8.662;2022-12-18T15:20:09;-4.20;99.90
21918;DHT22;11123;49.882;8.662;2022-12-18T15:22:39;-4.20;99.90
21918;DHT22;11123;49.882;8.662;2022-12-18T15:25:24;-4.30;99.90
21918;DHT22;11123;49.882;8.662;2022-12-18T15:27:55;-4.30;99.90
21918;DHT22;11123;49.882;8.662;2022-12-18T15:30:25;-4.30;99.90
21918;DHT22;11123;49.882;8.662;2022-12-18T15:36:07;-4.30;99.90
21918;DHT22;11123;49.882;8.662;2022-12-18T15:38:38;-4.30;99.90
21918;DHT22;11123;49.882;8.662;2022-12-18T15:41:13;-4.30;99.90
21918;DHT22;11123;49.882;8.662;2022-12-18T15:43:52;-4.40;99.90
21918;DHT22;11123;49.882;8.662;2022-12-18T15:46:23;-4.40;99.90
21918;DHT22;11123;49.882;8.662;2022-12-18T15:48:54;-4.40;99.90
21918;DHT22;11123;49.882;8.662;2022-12-18T15:51:32;-4.40;99.90
21918;DHT22;11123;49.882;8.662;2022-12-18T15:54:04;-4.40;99.90
21918;DHT22;11123;49.882;8.662;2022-12-18T15:56:35;-4.40;99.90
21918;DHT22;11123;49.882;8.662;2022-12-18T15:59:22;-4.40;99.90
21918;DHT22;11123;49.882;8.662;2022-12-18T16:01:52;-4.40;99.90
21918;DHT22;11123;49.882;8.662;2022-12-18T16:04:22;-4.40;99.90
21918;DHT22;11123;49.882;8.662;2022-12-18T16:06:54;-4.50;99.90
21918;DHT22;11123;49.882;8.662;2022-12-18T16:09:41;-4.40;99.90
21918;DHT22;11123;49.882;8.662;2022-12-18T16:12:17;-4.40;99.90
21918;DHT22;11123;49.882;8.662;2022-12-18T16:14:48;-4.40;99.90
21918;DHT22;11123;49.882;8.662;2022-12-18T16:17:19;-4.40;99.90
21918;DHT22;11123;49.882;8.662;2022-12-18T16:19:48;-4.40;99.90
21918;DHT22;11123;49.882;8.662;2022-12-18T16:22:22;-4.40;99.90
21918;DHT22;11123;49.882;8.662;2022-12-18T16:24:54;-4.40;99.90
21918;DHT22;11123;49.882;8.662;2022-12-18T16:27:24;-4.40;99.90
21918;DHT22;11123;49.882;8.662;2022-12-18T16:29:54;-4.40;99.90
21918;DHT22;11123;49.882;8.662;2022-12-18T16:32:23;-4.40;99.90
21918;DHT22;11123;49.882;8.662;2022-12-18T16:38:54;-4.40;99.90
21918;DHT22;11123;49.882;8.662;2022-12-18T16:41:24;-4.40;99.90
21918;DHT22;11123;49.882;8.662;2022-12-18T16:43:59;-4.40;99.90
21918;DHT22;11123;49.882;8.662;2022-12-18T16:46:29;-4.40;99.90
21918;DHT22;11123;49.882;8.662;2022-12-18T16:49:01;-4.40;99.90
21918;DHT22;11123;49.882;8.662;2022-12-18T16:51:33;-4.40;99.90
21918;DHT22;11123;49.882;8.662;2022-12-18T16:54:04;-4.30;99.90
21918;DHT22;11123;49.882;8.662;2022-12-18T16:56:39;-4.30;99.90
21918;DHT22;11123;49.882;8.662;2022-12-18T16:59:10;-4.30;99.90
21918;DHT22;11123;49.882;8.662;2022-12-18T17:01:40;-4.30;99.90
21918;DHT22;11123;49.882;8.662;2022-12-18T17:04:11;-4.30;99.90
21918;DHT22;11123;49.882;8.662;2022-12-18T17:06:42;-4.30;99.90
21918;DHT22;11123;49.882;8.662;2022-12-18T17:09:15;-4.30;99.90
21918;DHT22;11123;49.882;8.662;2022-12-18T17:11:45;-4.30;99.90
21918;DHT22;11123;49.882;8.662;2022-12-18T17:14:16;-4.30;99.90
21918;DHT22;11123;49.882;8.662;2022-12-18T17:16:46;-4.30;99.90
21918;DHT22;11123;49.882;8.662;2022-12-18T17:19:35;-4.30;99.90
21918;DHT22;11123;49.882;8.662;2022-12-18T17:22:05;-4.20;99.90
21918;DHT22;11123;49.882;8.662;2022-12-18T17:24:35;-4.20;99.90
21918;DHT22;11123;49.882;8.662;2022-12-18T17:27:04;-4.20;99.90
21918;DHT22;11123;49.882;8.662;2022-12-18T17:29:35;-4.10;99.90
21918;DHT22;11123;49.882;8.662;2022-12-18T17:32:13;-4.10;99.90
21918;DHT22;11123;49.882;8.662;2022-12-18T17:34:42;-4.00;99.90
21918;DHT22;11123;49.882;8.662;2022-12-18T17:37:12;-3.90;99.90
21918;DHT22;11123;49.882;8.662;2022-12-18T17:39:42;-3.90;99.90
21918;DHT22;11123;49.882;8.662;2022-12-18T17:42:11;-3.90;99.90
21918;DHT22;11123;49.882;8.662;2022-12-18T17:44:42;-3.90;99.90
21918;DHT22;11123;49.882;8.662;2022-12-18T17:47:11;-3.90;99.90
21918;DHT22;11123;49.882;8.662;2022-12-18T17:49:41;-3.90;99.90
21918;DHT22;11123;49.882;8.662;2022-12-18T17:52:10;-3.80;99.90
21918;DHT22;11123;49.882;8.662;2022-12-18T17:54:39;-3.80;99.90
21918;DHT22;11123;49.882;8.662;2022-12-18T17:57:10;-3.80;99.90
21918;DHT22;11123;49.882;8.662;2022-12-18T17:59:39;-3.80;99.90
21918;DHT22;11123;49.882;8.662;2022-12-18T18:02:09;-3.80;99.90
21918;DHT22;11123;49.882;8.662;2022-12-18T18:04:39;-3.70;99.90
21918;DHT22;11123;49.882;8.662;2022-12-18T18:07:08;-3.70;99.90
21918;DHT22;11123;49.882;8.662;2022-12-18T18:09:37;-3.70;99.90
21918;DHT22;11123;49.882;8.662;2022-12-18T18:12:09;-3.70;99.90
21918;DHT22;11123;49.882;8.662;2022-12-18T18:14:55;-3.70;99.90
21918;DHT22;11123;49.882;8.662;2022-12-18T18:17:25;-3.80;99.90
21918;DHT22;11123;49.882;8.662;2022-12-18T18:19:54;-3.70;99.90
21918;DHT22;11123;49.882;8.662;2022-12-18T18:22:23;-3.70;99.90
21918;DHT22;11123;49.882;8.662;2022-12-18T18:24:52;-3.70;99.90
21918;DHT22;11123;49.882;8.662;2022-12-18T18:27:23;-3.70;99.90
21918;DHT22;11123;49.882;8.662;2022-12-18T18:29:52;-3.70;99.90
21918;DHT22;11123;49.882;8.662;2022-12-18T18:32:22;-3.70;99.90
21918;DHT22;11123;49.882;8.662;2022-12-18T18:34:50;-3.60;99.90
21918;DHT22;11123;49.882;8.662;2022-12-18T18:37:20;-3.50;99.90
21918;DHT22;11123;49.882;8.662;2022-12-18T18:39:48;-3.40;99.90
21918;DHT22;11123;49.882;8.662;2022-12-18T18:42:17;-3.30;99.90
21918;DHT22;11123;49.882;8.662;2022-12-18T18:44:48;-3.20;99.90
21918;DHT22;11123;49.882;8.662;2022-12-18T18:47:16;-3.20;99.90
21918;DHT22;11123;49.882;8.662;2022-12-18T18:49:46;-3.20;99.90
21918;DHT22;11123;49.882;8.662;2022-12-18T18:52:15;-3.20;99.90
21918;DHT22;11123;49.882;8.662;2022-12-18T18:54:46;-3.20;99.90
21918;DHT22;11123;49.882;8.662;2022-12-18T18:57:34;-3.20;99.90
21918;DHT22;11123;49.882;8.662;2022-12-18T19:00:06;-3.10;99.90
21918;DHT22;11123;49.882;8.662;2022-12-18T19:02:36;-3.10;99.90
21918;DHT22;11123;49.882;8.662;2022-12-18T19:05:05;-3.20;99.90
21918;DHT22;11123;49.882;8.662;2022-12-18T19:07:39;-3.10;99.90